KICR

Winner Regional Airport

Winner, South Dakota, USA
METAR KICR 201457Z AUTO 31015KT 3SM -SN OVC024 M16/M19 A3011 RMK AO2 P0000 T11561189
Observed Flight Rules
Feb-20 @ 14:57 UTC (2 hours ago) Marginal Visual Flight Rules
Wind Visibility Clouds Conditions
310° at 15 knots 3 miles
  • Overcast at 2,400' AGL
  • Light Snow
Temperatures Readings Precipitation
Current -16°C / 3°F
Dewpoint -19°C / -2°F
Humidity 78%
Altimeter 30.11" Hg
Pressure 1020 hPa
Elevation 621
Current Rain 0.005
METAR KICR 201457Z AUTO 31015KT 3SM -SN OVC024 M16/M19 A3011 RMK AO2 P0000 T11561189
Observed Flight Rules
Feb-20 @ 14:57 UTC
(2 hours ago)
MVFR
Wind Visibility
310° at 15 knots 3 miles
Clouds
  • Overcast at 2,400' AGL
Conditions
  • Light Snow
Temperature Dewpoint
-16°C / 3°F -19°C / -2°F
Humidity Altimeter Pressure
78% 30.11" Hg 1020 hPa
Current Rain
0.005